Weather reports worldwide

Advertisment
Madrid, Spain (8222): temperature & dewpoint: 13.12.2018 05:00:00 - 19.12.2018 05:00:00 (CET)Madrid, Spain (8222): wind speed & gusts: 13.12.2018 05:00:00 - 19.12.2018 05:00:00 (CET)Madrid, Spain (8222): wind direction: 13.12.2018 05:00:00 - 19.12.2018 05:00:00 (CET)Madrid, Spain (8222): reduced air pressure: 13.12.2018 05:00:00 - 19.12.2018 05:00:00 (CET)Madrid, Spain (8222): precipitation: 13.12.2018 05:00:00 - 19.12.2018 05:00:00 (CET)
Date & Time tt [°C] td [°C] ff [km/h] ff [kn] fx [km/h] fx [kn] dd ppp [hPa] rr [mm]
19.12.2018 05:00:00 6,2 5,0 1 0 8 4 SW 1021,2 0,0
19.12.2018 04:00:00 6,3 5,1 0 0 0 0 N 1021,3 0,0
19.12.2018 03:00:00 6,1 4,8 0 0 3 2 N 1021,4 0,3
19.12.2018 02:00:00 5,8 4,1 3 2 10 5 NE 1021,3 0,3
19.12.2018 01:00:00 6,0 3,9 3 2 7 4 E 1021,5 -
19.12.2018 00:00:00 7,2 3,2 0 0 8 4 NE 1021,6 0,1
18.12.2018 23:00:00 7,6 3,2 4 2 7 4 E 1021,5 0,0
18.12.2018 22:00:00 7,3 3,4 0 0 9 5 E 1021,4 0,0
18.12.2018 21:00:00 7,3 3,4 1 1 8 4 S 1022,0 0,0
18.12.2018 20:00:00 7,0 3,0 1 1 10 5 SSE 1022,0 0,0
18.12.2018 19:00:00 6,3 2,3 0 0 6 3 ESE 1022,7 -
18.12.2018 18:00:00 6,3 2,1 1 0 9 5 SSW 1022,4 0,0
18.12.2018 17:00:00 6,5 1,5 2 1 14 8 S 1022,2 0,0
18.12.2018 16:00:00 6,9 0,9 3 1 9 5 S 1022,0 0,0
18.12.2018 15:00:00 7,3 0,4 3 1 9 5 S 1022,3 0,0
18.12.2018 14:00:00 7,1 0,2 2 1 9 5 SE 1022,7 0,0
18.12.2018 13:00:00 6,4 0,2 2 1 8 5 SE 1024,0 -
18.12.2018 12:00:00 5,5 -0,3 4 2 8 5 SSE 1025,2 0,0
18.12.2018 11:00:00 4,5 -0,5 1 0 9 5 SE 1026,2 0,0
18.12.2018 10:00:00 3,3 -0,7 4 2 9 5 ESE 1026,4 0,0
18.12.2018 09:00:00 2,7 -1,2 5 3 10 5 E 1026,1 0,0
18.12.2018 08:00:00 2,6 -1,4 4 2 12 7 E 1026,3 0,0
18.12.2018 07:00:00 2,9 -1,4 5 3 12 6 NE 1026,6 -
18.12.2018 06:00:00 2,9 -1,2 7 4 15 8 NE 1026,6 0,0
18.12.2018 05:00:00 2,9 -0,7 4 2 10 5 E 1027,0 0,0
18.12.2018 04:00:00 2,6 -1,0 3 1 10 5 NE 1027,8 0,0
18.12.2018 03:00:00 3,3 -1,2 5 3 29 15 NE 1028,2 0,0
18.12.2018 02:00:00 3,8 -1,2 13 7 21 12 NE 1028,5 0,0
18.12.2018 01:00:00 3,9 -0,7 3 1 6 4 NNE 1029,3 -
18.12.2018 00:00:00 4,0 -0,5 0 0 7 4 NE 1029,4 0,0
17.12.2018 23:00:00 4,3 -0,7 3 1 6 4 NNE 1029,2 0,0
17.12.2018 22:00:00 5,5 -0,5 3 1 11 6 NE 1028,8 0,0
17.12.2018 21:00:00 6,1 0,0 2 1 7 4 ENE 1029,3 0,0
17.12.2018 20:00:00 6,1 0,0 3 2 7 4 E 1029,1 0,0
17.12.2018 19:00:00 5,7 -0,7 2 1 6 4 E 1029,4 -
17.12.2018 18:00:00 7,3 -0,7 1 1 9 5 E 1028,4 0,0
17.12.2018 17:00:00 8,5 -0,5 5 3 12 7 E 1028,4 0,0
17.12.2018 16:00:00 8,9 -0,5 6 3 14 7 ESE 1027,9 0,0
17.12.2018 15:00:00 9,1 -0,5 7 4 16 9 SE 1028,5 0,0
17.12.2018 14:00:00 8,4 -0,5 9 5 17 9 E 1028,9 0,0
17.12.2018 13:00:00 8,0 0,6 4 2 12 6 ESE 1029,5 -
17.12.2018 12:00:00 6,8 0,6 3 2 7 4 S 1030,6 0,0
17.12.2018 11:00:00 4,8 -0,3 3 2 8 5 SSW 1031,5 0,0
17.12.2018 10:00:00 4,1 0,2 2 1 11 6 SE 1031,1 0,0
17.12.2018 09:00:00 3,6 -0,7 4 2 10 5 NE 1030,5 0,0
17.12.2018 08:00:00 3,5 -1,0 2 1 6 3 NNE 1029,8 0,0
17.12.2018 07:00:00 2,6 -1,7 0 0 8 4 WNW 1029,9 -
17.12.2018 06:00:00 3,0 -1,4 3 2 9 5 WNW 1029,4 0,0
17.12.2018 05:00:00 3,8 -1,4 3 1 10 6 W 1028,5 0,0
17.12.2018 04:00:00 4,3 -1,7 3 1 12 7 NNW 1028,5 0,0
17.12.2018 03:00:00 4,4 -1,4 8 4 16 8 NW 1028,5 0,0
17.12.2018 02:00:00 5,3 -2,0 6 4 26 14 W 1028,5 0,0
17.12.2018 01:00:00 6,3 -2,0 1 1 21 11 WNW 1027,1 -
17.12.2018 00:00:00 5,7 -0,7 6 4 15 8 NW 1027,6 0,0
16.12.2018 23:00:00 7,0 -0,7 6 3 27 15 NW 1026,8 0,0
16.12.2018 22:00:00 7,7 -0,3 10 6 26 14 W 1025,7 0,0
16.12.2018 21:00:00 8,0 0,0 9 5 19 10 W 1025,0 0,0
16.12.2018 20:00:00 9,0 -0,3 9 5 29 16 NW 1024,0 0,0
16.12.2018 19:00:00 9,2 1,1 8 4 35 19 NW 1022,8 -
16.12.2018 18:00:00 10,2 4,3 11 6 34 18 W 1020,9 0,0
16.12.2018 17:00:00 11,4 5,8 10 6 30 16 W 1019,8 0,0
16.12.2018 16:00:00 12,0 6,2 16 9 44 24 W 1019,0 0,0
16.12.2018 15:00:00 11,7 6,2 21 12 45 25 W 1018,4 0,0
16.12.2018 14:00:00 10,8 7,4 17 9 38 21 WSW 1018,7 0,0
16.12.2018 13:00:00 9,5 8,3 13 7 27 14 SW 1019,1 -
16.12.2018 12:00:00 8,3 7,4 6 3 16 9 SSW 1019,9 0,0
16.12.2018 11:00:00 7,6 6,7 6 3 14 8 S 1020,3 0,0
16.12.2018 10:00:00 7,4 6,5 6 3 15 8 S 1020,4 0,2
16.12.2018 09:00:00 7,6 6,5 4 2 18 10 SSW 1020,5 0,1
16.12.2018 08:00:00 7,6 6,4 11 6 29 15 SW 1020,0 0,0
16.12.2018 07:00:00 7,3 6,1 7 4 23 13 SSW 1020,2 -
16.12.2018 06:00:00 7,3 6,2 9 5 22 12 SW 1020,9 0,0
16.12.2018 05:00:00 7,3 6,2 8 5 19 10 SSW 1021,7 0,0
16.12.2018 04:00:00 7,5 6,4 7 4 21 12 SSW 1022,1 0,1
16.12.2018 03:00:00 7,5 6,1 6 4 18 10 SW 1022,6 0,0
16.12.2018 02:00:00 8,0 5,6 9 5 28 15 SW 1022,7 0,0
16.12.2018 01:00:00 8,1 5,6 7 4 19 11 SW 1023,5 -
16.12.2018 00:00:00 8,1 5,8 7 4 20 11 SW 1024,5 0,0
15.12.2018 23:00:00 8,3 6,1 8 5 21 11 SSW 1024,6 0,0
15.12.2018 22:00:00 8,5 6,2 8 5 20 11 WSW 1025,0 0,0
15.12.2018 21:00:00 8,5 6,1 7 4 25 14 WSW 1024,9 0,0
15.12.2018 20:00:00 8,4 6,5 9 5 26 14 WSW 1025,1 0,0
15.12.2018 19:00:00 8,2 6,8 9 5 18 10 W 1025,3 -
15.12.2018 18:00:00 8,2 6,5 6 3 16 9 SW 1025,1 0,0
15.12.2018 17:00:00 8,4 5,5 3 2 8 4 SSW 1025,1 0,0
15.12.2018 16:00:00 8,5 5,1 0 0 5 3 SW 1025,1 0,0
15.12.2018 15:00:00 7,9 4,5 1 0 9 5 SE 1025,5 0,0
15.12.2018 14:00:00 7,4 3,8 4 2 11 6 SSE 1025,9 0,0
15.12.2018 13:00:00 6,5 2,5 3 2 11 6 SSW 1027,1 -
15.12.2018 12:00:00 5,9 2,5 2 1 9 5 SW 1028,3 0,0
15.12.2018 11:00:00 4,8 1,9 3 2 10 5 S 1028,7 0,0
15.12.2018 10:00:00 3,8 1,5 3 2 8 4 SSE 1028,3 0,0
15.12.2018 09:00:00 2,8 1,1 4 2 8 5 SSE 1028,0 0,0
15.12.2018 08:00:00 2,2 0,4 2 1 8 4 SW 1027,3 0,0
15.12.2018 07:00:00 2,2 0,0 1 1 5 3 SSW 1027,5 -
15.12.2018 06:00:00 2,7 -0,3 0 0 8 5 S 1027,1 0,0
15.12.2018 05:00:00 3,8 0,4 5 3 10 6 E 1026,6 0,0
15.12.2018 04:00:00 3,6 0,2 0 0 10 6 N 1026,9 0,0
15.12.2018 03:00:00 3,5 -0,3 4 2 8 4 W 1026,9 0,0
15.12.2018 02:00:00 4,3 -0,7 4 2 7 4 SW 1026,0 0,0
15.12.2018 01:00:00 5,4 -0,5 3 2 18 10 W 1026,1 -
15.12.2018 00:00:00 5,2 -0,3 5 3 21 11 NNW 1026,1 0,0
14.12.2018 23:00:00 5,2 -0,3 5 3 15 8 WNW 1026,1 0,0
14.12.2018 22:00:00 5,3 -0,7 4 2 17 9 NW 1025,4 0,0
14.12.2018 21:00:00 5,3 -1,0 5 3 15 8 W 1026,1 0,0
14.12.2018 20:00:00 6,6 -1,0 7 4 22 12 NW 1025,2 0,0
14.12.2018 19:00:00 7,2 -1,2 6 4 24 13 NW 1024,4 -
14.12.2018 18:00:00 7,7 -1,2 5 3 15 8 WNW 1023,7 0,0
14.12.2018 17:00:00 9,0 -1,2 5 3 19 11 NW 1022,7 0,0
14.12.2018 16:00:00 9,9 -1,2 8 4 25 13 NW 1022,4 0,0
14.12.2018 15:00:00 10,0 -0,5 8 4 26 14 WNW 1022,1 0,0
14.12.2018 14:00:00 9,5 -1,0 9 5 31 17 NW 1022,1 0,0
14.12.2018 13:00:00 8,6 -0,3 10 5 35 19 WNW 1022,7 -
14.12.2018 12:00:00 7,8 0,0 14 8 29 15 WNW 1022,6 0,0
14.12.2018 11:00:00 6,5 0,4 9 5 24 13 WNW 1022,4 0,0
14.12.2018 10:00:00 5,2 0,0 9 5 24 13 NW 1022,2 0,0
14.12.2018 09:00:00 4,3 -0,3 9 5 22 12 NW 1020,8 0,0
14.12.2018 08:00:00 4,4 -0,5 8 4 25 13 WNW 1020,6 0,0
14.12.2018 07:00:00 3,3 -1,0 8 4 19 10 WNW 1020,4 -
14.12.2018 06:00:00 3,5 -0,7 9 5 26 14 NW 1019,2 0,0
14.12.2018 05:00:00 3,5 -1,0 11 6 30 16 NW 1018,3 0,0
14.12.2018 04:00:00 2,9 -1,4 4 2 11 6 WNW 1018,1 0,0
14.12.2018 03:00:00 3,4 -1,4 4 2 9 5 W 1017,4 0,0
14.12.2018 02:00:00 4,0 -2,2 1 1 12 6 N 1016,6 0,0
14.12.2018 01:00:00 4,5 -2,0 4 2 28 15 WNW 1016,1 -
14.12.2018 00:00:00 5,2 -2,0 11 6 29 16 NW 1015,5 0,0
13.12.2018 23:00:00 5,5 -2,5 11 6 34 18 WNW 1014,5 0,0
13.12.2018 22:00:00 5,9 -2,5 10 6 25 14 WNW 1013,5 0,0
13.12.2018 21:00:00 6,4 -2,7 9 5 24 13 WNW 1012,8 0,0
13.12.2018 20:00:00 7,1 -3,3 6 3 30 16 WNW 1011,7 0,0
13.12.2018 19:00:00 8,0 -1,2 11 6 33 18 WNW 1010,4 -
13.12.2018 18:00:00 7,9 -0,3 8 5 45 24 NW 1009,5 0,0
13.12.2018 17:00:00 7,6 0,2 21 11 53 29 WNW 1008,8 0,0
13.12.2018 16:00:00 7,6 0,4 16 8 44 24 WNW 1008,2 0,0
13.12.2018 15:00:00 8,1 0,9 16 9 49 26 WNW 1006,8 0,0
13.12.2018 14:00:00 7,4 1,1 15 8 38 20 WNW 1007,0 0,0
13.12.2018 13:00:00 7,4 1,1 12 7 35 19 WNW 1007,2 -
13.12.2018 12:00:00 6,3 4,3 11 6 28 15 WNW 1007,3 0,0
13.12.2018 11:00:00 5,6 3,9 5 3 27 15 WNW 1008,3 1,6
13.12.2018 10:00:00 6,3 5,3 5 3 32 17 WNW 1007,9 4,2
13.12.2018 09:00:00 7,2 6,1 3 2 16 8 SSW 1007,4 1,3
13.12.2018 08:00:00 7,4 6,4 4 2 15 8 S 1008,6 0,4
13.12.2018 07:00:00 7,3 6,2 4 2 14 8 SSW 1009,2 -
13.12.2018 06:00:00 7,2 6,1 6 3 16 9 S 1010,6 0,0
13.12.2018 05:00:00 7,1 6,1 6 3 16 9 SSW 1012,1 1,5

tt = temperature
td = dewpoint
ff = wind speed
fx = gusts
dd = wind direction
ppp = reduced air pressure
rr = precipitation

Next stations